sensor_id;sensor_type;location;lat;lon;timestamp;P1;durP1;ratioP1;P2;durP2;ratioP2
40675;SDS011;26359;48.750;9.314;2023-04-24T00:02:07;6.28;;;4.22;;
40675;SDS011;26359;48.750;9.314;2023-04-24T00:04:35;5.68;;;5.32;;
40675;SDS011;26359;48.750;9.314;2023-04-24T00:07:05;5.80;;;5.30;;
40675;SDS011;26359;48.750;9.314;2023-04-24T00:09:31;4.93;;;4.40;;
40675;SDS011;26359;48.750;9.314;2023-04-24T00:11:57;5.30;;;5.00;;
40675;SDS011;26359;48.750;9.314;2023-04-24T00:14:23;6.03;;;5.53;;
40675;SDS011;26359;48.750;9.314;2023-04-24T00:16:49;5.10;;;4.70;;
40675;SDS011;26359;48.750;9.314;2023-04-24T00:19:14;5.53;;;5.13;;
40675;SDS011;26359;48.750;9.314;2023-04-24T00:21:40;4.68;;;4.40;;
40675;SDS011;26359;48.750;9.314;2023-04-24T00:24:06;5.47;;;5.07;;
40675;SDS011;26359;48.750;9.314;2023-04-24T00:26:34;4.93;;;4.43;;
40675;SDS011;26359;48.750;9.314;2023-04-24T00:28:59;6.13;;;5.80;;
40675;SDS011;26359;48.750;9.314;2023-04-24T00:31:25;5.57;;;5.25;;
40675;SDS011;26359;48.750;9.314;2023-04-24T00:33:50;5.60;;;5.03;;
40675;SDS011;26359;48.750;9.314;2023-04-24T00:36:16;5.05;;;4.65;;
40675;SDS011;26359;48.750;9.314;2023-04-24T00:38:44;5.05;;;4.75;;
40675;SDS011;26359;48.750;9.314;2023-04-24T00:41:09;4.78;;;4.53;;
40675;SDS011;26359;48.750;9.314;2023-04-24T00:43:35;5.30;;;4.90;;
40675;SDS011;26359;48.750;9.314;2023-04-24T00:46:00;4.97;;;4.65;;
40675;SDS011;26359;48.750;9.314;2023-04-24T00:48:26;5.82;;;5.43;;
40675;SDS011;26359;48.750;9.314;2023-04-24T00:50:52;4.88;;;4.30;;
40675;SDS011;26359;48.750;9.314;2023-04-24T00:53:18;6.53;;;6.20;;
40675;SDS011;26359;48.750;9.314;2023-04-24T00:55:44;6.80;;;6.43;;
40675;SDS011;26359;48.750;9.314;2023-04-24T00:58:11;5.22;;;4.82;;
40675;SDS011;26359;48.750;9.314;2023-04-24T01:00:37;5.15;;;4.82;;
40675;SDS011;26359;48.750;9.314;2023-04-24T01:03:03;4.15;;;3.78;;
40675;SDS011;26359;48.750;9.314;2023-04-24T01:05:30;6.13;;;5.72;;
40675;SDS011;26359;48.750;9.314;2023-04-24T01:07:57;8.65;;;8.05;;
40675;SDS011;26359;48.750;9.314;2023-04-24T01:10:24;6.30;;;5.93;;
40675;SDS011;26359;48.750;9.314;2023-04-24T01:12:52;7.00;;;6.60;;
40675;SDS011;26359;48.750;9.314;2023-04-24T01:15:18;5.90;;;5.50;;
40675;SDS011;26359;48.750;9.314;2023-04-24T01:17:44;7.13;;;6.63;;
40675;SDS011;26359;48.750;9.314;2023-04-24T01:20:10;5.75;;;5.35;;
40675;SDS011;26359;48.750;9.314;2023-04-24T01:22:35;8.40;;;7.90;;
40675;SDS011;26359;48.750;9.314;2023-04-24T01:25:01;4.68;;;4.38;;
40675;SDS011;26359;48.750;9.314;2023-04-24T01:27:28;5.28;;;4.80;;
40675;SDS011;26359;48.750;9.314;2023-04-24T01:29:54;7.63;;;7.13;;
40675;SDS011;26359;48.750;9.314;2023-04-24T01:32:19;8.90;;;8.40;;
40675;SDS011;26359;48.750;9.314;2023-04-24T01:34:45;6.65;;;5.93;;
40675;SDS011;26359;48.750;9.314;2023-04-24T01:37:11;6.43;;;5.90;;
40675;SDS011;26359;48.750;9.314;2023-04-24T01:39:37;11.23;;;10.57;;
40675;SDS011;26359;48.750;9.314;2023-04-24T01:42:04;5.90;;;5.45;;
40675;SDS011;26359;48.750;9.314;2023-04-24T01:44:30;6.93;;;6.40;;
40675;SDS011;26359;48.750;9.314;2023-04-24T01:46:56;5.72;;;5.40;;
40675;SDS011;26359;48.750;9.314;2023-04-24T01:49:21;6.18;;;5.75;;
40675;SDS011;26359;48.750;9.314;2023-04-24T01:51:47;5.13;;;4.82;;
40675;SDS011;26359;48.750;9.314;2023-04-24T01:54:14;4.93;;;4.63;;
40675;SDS011;26359;48.750;9.314;2023-04-24T01:56:40;5.65;;;5.25;;
40675;SDS011;26359;48.750;9.314;2023-04-24T01:59:07;13.70;;;12.90;;
40675;SDS011;26359;48.750;9.314;2023-04-24T02:01:36;6.18;;;5.78;;
40675;SDS011;26359;48.750;9.314;2023-04-24T02:04:02;5.10;;;4.80;;
40675;SDS011;26359;48.750;9.314;2023-04-24T02:06:28;4.57;;;4.28;;
40675;SDS011;26359;48.750;9.314;2023-04-24T02:08:53;9.77;;;9.07;;
40675;SDS011;26359;48.750;9.314;2023-04-24T02:11:19;6.35;;;5.95;;
40675;SDS011;26359;48.750;9.314;2023-04-24T02:13:45;10.85;;;10.25;;
40675;SDS011;26359;48.750;9.314;2023-04-24T02:16:10;8.18;;;7.72;;
40675;SDS011;26359;48.750;9.314;2023-04-24T02:18:36;6.57;;;5.97;;
40675;SDS011;26359;48.750;9.314;2023-04-24T02:21:01;5.78;;;5.38;;
40675;SDS011;26359;48.750;9.314;2023-04-24T02:23:27;5.30;;;5.00;;
40675;SDS011;26359;48.750;9.314;2023-04-24T02:25:52;3.67;;;3.38;;
40675;SDS011;26359;48.750;9.314;2023-04-24T02:28:18;6.78;;;6.38;;
40675;SDS011;26359;48.750;9.314;2023-04-24T02:30:44;8.18;;;7.63;;
40675;SDS011;26359;48.750;9.314;2023-04-24T02:33:10;4.97;;;4.57;;
40675;SDS011;26359;48.750;9.314;2023-04-24T02:35:36;6.20;;;3.67;;
40675;SDS011;26359;48.750;9.314;2023-04-24T02:38:02;5.90;;;5.50;;
40675;SDS011;26359;48.750;9.314;2023-04-24T02:40:28;5.97;;;5.68;;
40675;SDS011;26359;48.750;9.314;2023-04-24T02:42:53;3.85;;;3.60;;
40675;SDS011;26359;48.750;9.314;2023-04-24T02:45:19;4.95;;;4.63;;
40675;SDS011;26359;48.750;9.314;2023-04-24T02:47:44;7.80;;;6.90;;
40675;SDS011;26359;48.750;9.314;2023-04-24T02:50:10;5.97;;;5.47;;
40675;SDS011;26359;48.750;9.314;2023-04-24T02:52:36;11.18;;;10.55;;
40675;SDS011;26359;48.750;9.314;2023-04-24T02:55:01;10.20;;;9.63;;
40675;SDS011;26359;48.750;9.314;2023-04-24T02:57:27;4.63;;;4.18;;
40675;SDS011;26359;48.750;9.314;2023-04-24T02:59:52;4.20;;;3.90;;
40675;SDS011;26359;48.750;9.314;2023-04-24T03:02:18;5.25;;;4.88;;
40675;SDS011;26359;48.750;9.314;2023-04-24T03:04:43;5.75;;;5.25;;
40675;SDS011;26359;48.750;9.314;2023-04-24T03:07:09;5.90;;;5.50;;
40675;SDS011;26359;48.750;9.314;2023-04-24T03:09:35;4.10;;;3.90;;
40675;SDS011;26359;48.750;9.314;2023-04-24T03:12:00;5.38;;;5.13;;
40675;SDS011;26359;48.750;9.314;2023-04-24T03:14:25;6.28;;;5.78;;
40675;SDS011;26359;48.750;9.314;2023-04-24T03:16:51;6.18;;;5.85;;
40675;SDS011;26359;48.750;9.314;2023-04-24T03:19:17;4.15;;;3.85;;
40675;SDS011;26359;48.750;9.314;2023-04-24T03:21:42;4.97;;;4.47;;
40675;SDS011;26359;48.750;9.314;2023-04-24T03:24:08;4.13;;;3.83;;
40675;SDS011;26359;48.750;9.314;2023-04-24T03:26:34;3.65;;;3.35;;
40675;SDS011;26359;48.750;9.314;2023-04-24T03:29:00;3.55;;;3.35;;
40675;SDS011;26359;48.750;9.314;2023-04-24T03:31:26;3.47;;;3.22;;
40675;SDS011;26359;48.750;9.314;2023-04-24T03:33:51;4.28;;;3.97;;
40675;SDS011;26359;48.750;9.314;2023-04-24T03:36:17;3.78;;;3.38;;
40675;SDS011;26359;48.750;9.314;2023-04-24T03:38:44;6.10;;;5.60;;
40675;SDS011;26359;48.750;9.314;2023-04-24T03:41:10;7.13;;;6.65;;
40675;SDS011;26359;48.750;9.314;2023-04-24T03:43:36;7.72;;;7.35;;
40675;SDS011;26359;48.750;9.314;2023-04-24T03:46:03;6.35;;;5.95;;
40675;SDS011;26359;48.750;9.314;2023-04-24T03:48:29;5.03;;;4.72;;
40675;SDS011;26359;48.750;9.314;2023-04-24T03:50:54;5.55;;;5.15;;
40675;SDS011;26359;48.750;9.314;2023-04-24T03:53:20;4.18;;;3.88;;
40675;SDS011;26359;48.750;9.314;2023-04-24T03:55:46;5.13;;;4.82;;
40675;SDS011;26359;48.750;9.314;2023-04-24T03:58:11;5.38;;;4.97;;
40675;SDS011;26359;48.750;9.314;2023-04-24T04:00:39;6.05;;;5.65;;
40675;SDS011;26359;48.750;9.314;2023-04-24T04:03:05;5.30;;;5.00;;
40675;SDS011;26359;48.750;9.314;2023-04-24T04:05:31;5.47;;;5.18;;
40675;SDS011;26359;48.750;9.314;2023-04-24T04:07:56;4.55;;;4.25;;
40675;SDS011;26359;48.750;9.314;2023-04-24T04:10:22;3.95;;;3.75;;
40675;SDS011;26359;48.750;9.314;2023-04-24T04:12:47;3.42;;;3.13;;
40675;SDS011;26359;48.750;9.314;2023-04-24T04:15:13;4.05;;;3.35;;
40675;SDS011;26359;48.750;9.314;2023-04-24T04:17:39;4.10;;;3.70;;
40675;SDS011;26359;48.750;9.314;2023-04-24T04:20:04;3.28;;;2.90;;
40675;SDS011;26359;48.750;9.314;2023-04-24T04:22:35;3.35;;;3.10;;
40675;SDS011;26359;48.750;9.314;2023-04-24T04:25:01;3.17;;;2.95;;
40675;SDS011;26359;48.750;9.314;2023-04-24T04:27:27;3.70;;;2.72;;
40675;SDS011;26359;48.750;9.314;2023-04-24T04:29:54;2.78;;;2.58;;
40675;SDS011;26359;48.750;9.314;2023-04-24T04:32:21;3.47;;;2.72;;
40675;SDS011;26359;48.750;9.314;2023-04-24T04:34:47;4.55;;;4.15;;
40675;SDS011;26359;48.750;9.314;2023-04-24T04:37:14;5.32;;;2.97;;
40675;SDS011;26359;48.750;9.314;2023-04-24T04:39:39;4.03;;;3.60;;
40675;SDS011;26359;48.750;9.314;2023-04-24T04:42:05;5.88;;;3.88;;
40675;SDS011;26359;48.750;9.314;2023-04-24T04:44:31;7.22;;;6.70;;
40675;SDS011;26359;48.750;9.314;2023-04-24T04:46:57;8.77;;;8.07;;
40675;SDS011;26359;48.750;9.314;2023-04-24T04:49:23;6.43;;;5.82;;
40675;SDS011;26359;48.750;9.314;2023-04-24T04:51:49;6.30;;;5.88;;
40675;SDS011;26359;48.750;9.314;2023-04-24T04:54:15;6.03;;;5.53;;
40675;SDS011;26359;48.750;9.314;2023-04-24T04:56:41;6.97;;;6.25;;
40675;SDS011;26359;48.750;9.314;2023-04-24T04:59:07;5.85;;;5.50;;
40675;SDS011;26359;48.750;9.314;2023-04-24T05:01:32;6.22;;;5.82;;
40675;SDS011;26359;48.750;9.314;2023-04-24T05:03:58;5.70;;;5.25;;
40675;SDS011;26359;48.750;9.314;2023-04-24T05:06:23;4.18;;;3.85;;
40675;SDS011;26359;48.750;9.314;2023-04-24T05:08:50;7.75;;;7.35;;
40675;SDS011;26359;48.750;9.314;2023-04-24T05:11:16;7.18;;;6.78;;
40675;SDS011;26359;48.750;9.314;2023-04-24T05:13:41;7.80;;;7.38;;
40675;SDS011;26359;48.750;9.314;2023-04-24T05:16:07;5.60;;;5.15;;
40675;SDS011;26359;48.750;9.314;2023-04-24T05:18:32;5.78;;;5.32;;
40675;SDS011;26359;48.750;9.314;2023-04-24T05:20:58;5.45;;;5.03;;
40675;SDS011;26359;48.750;9.314;2023-04-24T05:23:23;6.30;;;5.82;;
40675;SDS011;26359;48.750;9.314;2023-04-24T05:25:49;6.55;;;4.03;;
40675;SDS011;26359;48.750;9.314;2023-04-24T05:28:14;3.00;;;2.65;;
40675;SDS011;26359;48.750;9.314;2023-04-24T05:30:40;3.00;;;2.75;;
40675;SDS011;26359;48.750;9.314;2023-04-24T05:33:06;7.70;;;7.10;;
40675;SDS011;26359;48.750;9.314;2023-04-24T05:35:31;4.45;;;4.15;;
40675;SDS011;26359;48.750;9.314;2023-04-24T05:37:57;5.00;;;4.63;;
40675;SDS011;26359;48.750;9.314;2023-04-24T05:40:22;3.65;;;3.35;;
40675;SDS011;26359;48.750;9.314;2023-04-24T05:42:48;3.42;;;3.22;;
40675;SDS011;26359;48.750;9.314;2023-04-24T05:45:14;4.25;;;3.92;;
40675;SDS011;26359;48.750;9.314;2023-04-24T05:47:41;3.90;;;3.60;;
40675;SDS011;26359;48.750;9.314;2023-04-24T05:50:09;3.70;;;3.40;;
40675;SDS011;26359;48.750;9.314;2023-04-24T05:52:35;5.03;;;4.55;;
40675;SDS011;26359;48.750;9.314;2023-04-24T05:55:00;5.18;;;4.70;;
40675;SDS011;26359;48.750;9.314;2023-04-24T05:57:26;3.60;;;3.40;;
40675;SDS011;26359;48.750;9.314;2023-04-24T05:59:51;5.18;;;4.88;;
40675;SDS011;26359;48.750;9.314;2023-04-24T06:02:17;6.30;;;5.80;;
40675;SDS011;26359;48.750;9.314;2023-04-24T06:04:43;4.97;;;4.57;;
40675;SDS011;26359;48.750;9.314;2023-04-24T06:07:09;6.65;;;6.05;;
40675;SDS011;26359;48.750;9.314;2023-04-24T06:09:35;5.22;;;4.82;;
40675;SDS011;26359;48.750;9.314;2023-04-24T06:12:01;5.18;;;4.78;;
40675;SDS011;26359;48.750;9.314;2023-04-24T06:14:27;4.55;;;4.20;;
40675;SDS011;26359;48.750;9.314;2023-04-24T06:16:53;5.68;;;5.18;;
40675;SDS011;26359;48.750;9.314;2023-04-24T06:19:18;5.10;;;4.60;;
40675;SDS011;26359;48.750;9.314;2023-04-24T06:21:44;5.53;;;4.97;;
40675;SDS011;26359;48.750;9.314;2023-04-24T06:24:10;7.25;;;5.47;;
40675;SDS011;26359;48.750;9.314;2023-04-24T06:26:35;5.20;;;4.60;;
40675;SDS011;26359;48.750;9.314;2023-04-24T06:29:01;5.82;;;5.43;;
40675;SDS011;26359;48.750;9.314;2023-04-24T06:31:27;6.28;;;5.32;;
40675;SDS011;26359;48.750;9.314;2023-04-24T06:33:52;5.53;;;5.13;;
40675;SDS011;26359;48.750;9.314;2023-04-24T06:36:18;4.50;;;4.20;;
40675;SDS011;26359;48.750;9.314;2023-04-24T06:38:43;5.20;;;4.75;;
40675;SDS011;26359;48.750;9.314;2023-04-24T06:41:09;5.10;;;4.80;;
40675;SDS011;26359;48.750;9.314;2023-04-24T06:43:35;5.45;;;5.05;;
40675;SDS011;26359;48.750;9.314;2023-04-24T06:46:00;4.65;;;4.13;;
40675;SDS011;26359;48.750;9.314;2023-04-24T06:48:28;6.10;;;5.60;;
40675;SDS011;26359;48.750;9.314;2023-04-24T06:50:53;7.38;;;6.88;;
40675;SDS011;26359;48.750;9.314;2023-04-24T06:53:19;5.95;;;5.50;;
40675;SDS011;26359;48.750;9.314;2023-04-24T06:55:45;5.85;;;5.50;;
40675;SDS011;26359;48.750;9.314;2023-04-24T06:58:11;6.22;;;5.82;;
40675;SDS011;26359;48.750;9.314;2023-04-24T07:00:37;5.35;;;4.95;;
40675;SDS011;26359;48.750;9.314;2023-04-24T07:03:03;5.28;;;4.72;;
40675;SDS011;26359;48.750;9.314;2023-04-24T07:05:30;6.40;;;5.57;;
40675;SDS011;26359;48.750;9.314;2023-04-24T07:07:56;5.05;;;4.57;;
40675;SDS011;26359;48.750;9.314;2023-04-24T07:10:23;5.55;;;5.00;;
40675;SDS011;26359;48.750;9.314;2023-04-24T07:12:49;4.65;;;4.22;;
40675;SDS011;26359;48.750;9.314;2023-04-24T07:15:15;5.00;;;4.50;;
40675;SDS011;26359;48.750;9.314;2023-04-24T07:17:41;6.03;;;5.47;;
40675;SDS011;26359;48.750;9.314;2023-04-24T07:20:09;8.20;;;7.60;;
40675;SDS011;26359;48.750;9.314;2023-04-24T07:22:35;7.05;;;6.35;;
40675;SDS011;26359;48.750;9.314;2023-04-24T07:25:02;4.40;;;4.10;;
40675;SDS011;26359;48.750;9.314;2023-04-24T07:27:28;6.10;;;5.65;;
40675;SDS011;26359;48.750;9.314;2023-04-24T07:29:54;5.22;;;4.90;;
40675;SDS011;26359;48.750;9.314;2023-04-24T07:32:19;5.78;;;5.32;;
40675;SDS011;26359;48.750;9.314;2023-04-24T07:34:45;9.50;;;8.90;;
40675;SDS011;26359;48.750;9.314;2023-04-24T07:37:10;6.40;;;5.90;;
40675;SDS011;26359;48.750;9.314;2023-04-24T07:39:36;5.30;;;4.80;;
40675;SDS011;26359;48.750;9.314;2023-04-24T07:42:01;6.13;;;5.63;;
40675;SDS011;26359;48.750;9.314;2023-04-24T07:44:27;5.93;;;5.50;;
40675;SDS011;26359;48.750;9.314;2023-04-24T07:46:53;6.28;;;5.78;;
40675;SDS011;26359;48.750;9.314;2023-04-24T07:49:18;4.68;;;4.38;;
40675;SDS011;26359;48.750;9.314;2023-04-24T07:51:44;3.97;;;3.70;;
40675;SDS011;26359;48.750;9.314;2023-04-24T07:54:10;4.40;;;3.85;;
40675;SDS011;26359;48.750;9.314;2023-04-24T07:56:35;6.60;;;5.93;;
40675;SDS011;26359;48.750;9.314;2023-04-24T07:59:10;6.85;;;6.35;;
40675;SDS011;26359;48.750;9.314;2023-04-24T08:01:36;7.93;;;7.35;;
40675;SDS011;26359;48.750;9.314;2023-04-24T08:04:07;11.13;;;10.15;;
40675;SDS011;26359;48.750;9.314;2023-04-24T08:06:37;6.85;;;6.35;;
40675;SDS011;26359;48.750;9.314;2023-04-24T08:09:02;6.53;;;6.03;;
40675;SDS011;26359;48.750;9.314;2023-04-24T08:11:28;10.38;;;9.70;;
40675;SDS011;26359;48.750;9.314;2023-04-24T08:13:53;4.93;;;4.00;;
40675;SDS011;26359;48.750;9.314;2023-04-24T08:19:07;5.25;;;4.13;;
40675;SDS011;26359;48.750;9.314;2023-04-24T08:21:35;5.35;;;4.88;;
40675;SDS011;26359;48.750;9.314;2023-04-24T08:24:01;4.70;;;3.88;;
40675;SDS011;26359;48.750;9.314;2023-04-24T08:26:30;8.73;;;6.75;;
40675;SDS011;26359;48.750;9.314;2023-04-24T08:28:55;7.10;;;6.63;;
40675;SDS011;26359;48.750;9.314;2023-04-24T08:31:21;6.97;;;6.57;;
40675;SDS011;26359;48.750;9.314;2023-04-24T08:33:47;5.82;;;5.43;;
40675;SDS011;26359;48.750;9.314;2023-04-24T08:36:13;5.68;;;5.28;;
40675;SDS011;26359;48.750;9.314;2023-04-24T08:38:38;5.55;;;5.15;;
40675;SDS011;26359;48.750;9.314;2023-04-24T08:41:04;7.72;;;7.22;;
40675;SDS011;26359;48.750;9.314;2023-04-24T08:43:32;6.57;;;6.18;;
40675;SDS011;26359;48.750;9.314;2023-04-24T08:46:01;6.28;;;5.78;;
40675;SDS011;26359;48.750;9.314;2023-04-24T08:48:28;7.90;;;7.38;;
40675;SDS011;26359;48.750;9.314;2023-04-24T08:50:54;9.70;;;9.13;;
40675;SDS011;26359;48.750;9.314;2023-04-24T08:53:21;4.97;;;4.68;;
40675;SDS011;26359;48.750;9.314;2023-04-24T08:55:49;5.47;;;5.07;;
40675;SDS011;26359;48.750;9.314;2023-04-24T08:58:16;7.22;;;5.72;;
40675;SDS011;26359;48.750;9.314;2023-04-24T09:00:43;6.20;;;5.80;;
40675;SDS011;26359;48.750;9.314;2023-04-24T09:03:15;6.13;;;5.72;;
40675;SDS011;26359;48.750;9.314;2023-04-24T09:05:42;6.57;;;6.15;;
40675;SDS011;26359;48.750;9.314;2023-04-24T09:08:10;6.25;;;5.85;;
40675;SDS011;26359;48.750;9.314;2023-04-24T09:10:38;7.13;;;6.43;;
40675;SDS011;26359;48.750;9.314;2023-04-24T09:13:05;5.78;;;5.25;;
40675;SDS011;26359;48.750;9.314;2023-04-24T09:15:31;5.40;;;5.10;;
40675;SDS011;26359;48.750;9.314;2023-04-24T09:17:57;5.85;;;5.45;;
40675;SDS011;26359;48.750;9.314;2023-04-24T09:20:22;8.65;;;8.15;;
40675;SDS011;26359;48.750;9.314;2023-04-24T09:22:48;6.22;;;5.72;;
40675;SDS011;26359;48.750;9.314;2023-04-24T09:25:20;6.68;;;6.03;;
40675;SDS011;26359;48.750;9.314;2023-04-24T09:27:46;10.07;;;9.43;;
40675;SDS011;26359;48.750;9.314;2023-04-24T09:30:12;5.80;;;5.47;;
40675;SDS011;26359;48.750;9.314;2023-04-24T09:32:38;6.63;;;6.20;;
40675;SDS011;26359;48.750;9.314;2023-04-24T09:35:13;4.90;;;4.55;;
40675;SDS011;26359;48.750;9.314;2023-04-24T09:37:45;10.07;;;9.15;;
40675;SDS011;26359;48.750;9.314;2023-04-24T09:42:38;8.40;;;7.88;;
40675;SDS011;26359;48.750;9.314;2023-04-24T09:45:08;9.52;;;8.73;;
40675;SDS011;26359;48.750;9.314;2023-04-24T09:47:36;5.90;;;5.40;;
40675;SDS011;26359;48.750;9.314;2023-04-24T09:50:13;8.13;;;7.72;;
40675;SDS011;26359;48.750;9.314;2023-04-24T09:52:42;4.80;;;4.50;;
40675;SDS011;26359;48.750;9.314;2023-04-24T09:55:20;5.60;;;5.10;;
40675;SDS011;26359;48.750;9.314;2023-04-24T09:57:54;6.78;;;6.22;;
40675;SDS011;26359;48.750;9.314;2023-04-24T10:00:21;5.93;;;5.40;;
40675;SDS011;26359;48.750;9.314;2023-04-24T10:03:06;8.43;;;7.72;;
40675;SDS011;26359;48.750;9.314;2023-04-24T10:05:33;8.30;;;7.80;;
40675;SDS011;26359;48.750;9.314;2023-04-24T10:08:09;9.95;;;9.25;;
40675;SDS011;26359;48.750;9.314;2023-04-24T10:10:43;9.02;;;8.43;;
40675;SDS011;26359;48.750;9.314;2023-04-24T10:13:11;8.85;;;8.35;;
40675;SDS011;26359;48.750;9.314;2023-04-24T10:15:38;6.68;;;6.07;;
40675;SDS011;26359;48.750;9.314;2023-04-24T10:18:05;4.18;;;3.78;;
40675;SDS011;26359;48.750;9.314;2023-04-24T10:20:32;3.42;;;3.22;;
40675;SDS011;26359;48.750;9.314;2023-04-24T10:23:00;5.00;;;3.95;;
40675;SDS011;26359;48.750;9.314;2023-04-24T10:25:29;4.25;;;3.80;;
40675;SDS011;26359;48.750;9.314;2023-04-24T10:27:57;7.28;;;6.88;;
40675;SDS011;26359;48.750;9.314;2023-04-24T10:30:28;6.75;;;6.28;;
40675;SDS011;26359;48.750;9.314;2023-04-24T10:32:55;6.22;;;5.78;;
40675;SDS011;26359;48.750;9.314;2023-04-24T10:35:21;7.43;;;6.90;;
40675;SDS011;26359;48.750;9.314;2023-04-24T10:38:04;6.07;;;5.68;;
40675;SDS011;26359;48.750;9.314;2023-04-24T10:40:35;6.97;;;6.57;;
40675;SDS011;26359;48.750;9.314;2023-04-24T10:43:02;14.23;;;13.23;;
40675;SDS011;26359;48.750;9.314;2023-04-24T10:45:31;9.55;;;9.02;;
40675;SDS011;26359;48.750;9.314;2023-04-24T10:47:58;4.97;;;4.57;;
40675;SDS011;26359;48.750;9.314;2023-04-24T10:50:42;12.88;;;12.20;;
40675;SDS011;26359;48.750;9.314;2023-04-24T10:53:16;12.00;;;11.32;;
40675;SDS011;26359;48.750;9.314;2023-04-24T10:58:16;11.18;;;10.63;;
40675;SDS011;26359;48.750;9.314;2023-04-24T11:00:55;11.75;;;11.15;;
40675;SDS011;26359;48.750;9.314;2023-04-24T11:10:54;5.53;;;5.18;;
40675;SDS011;26359;48.750;9.314;2023-04-24T11:16:31;5.43;;;5.13;;
40675;SDS011;26359;48.750;9.314;2023-04-24T11:21:42;8.40;;;7.80;;
40675;SDS011;26359;48.750;9.314;2023-04-24T11:30:29;6.25;;;5.85;;
40675;SDS011;26359;48.750;9.314;2023-04-24T11:35:38;4.90;;;4.60;;
40675;SDS011;26359;48.750;9.314;2023-04-24T11:37:50;6.32;;;5.80;;
40675;SDS011;26359;48.750;9.314;2023-04-24T11:40:18;4.53;;;4.22;;
40675;SDS011;26359;48.750;9.314;2023-04-24T11:42:49;4.82;;;4.53;;
40675;SDS011;26359;48.750;9.314;2023-04-24T11:45:20;5.50;;;5.20;;
40675;SDS011;26359;48.750;9.314;2023-04-24T11:47:50;6.70;;;6.30;;
40675;SDS011;26359;48.750;9.314;2023-04-24T11:50:17;11.80;;;10.70;;
40675;SDS011;26359;48.750;9.314;2023-04-24T11:52:44;6.95;;;6.57;;
40675;SDS011;26359;48.750;9.314;2023-04-24T11:57:42;7.78;;;7.25;;
40675;SDS011;26359;48.750;9.314;2023-04-24T12:00:14;5.60;;;5.03;;
40675;SDS011;26359;48.750;9.314;2023-04-24T12:02:47;6.15;;;5.82;;
40675;SDS011;26359;48.750;9.314;2023-04-24T12:05:24;5.40;;;5.00;;
40675;SDS011;26359;48.750;9.314;2023-04-24T12:07:51;5.88;;;5.47;;
40675;SDS011;26359;48.750;9.314;2023-04-24T12:10:21;5.95;;;5.53;;
40675;SDS011;26359;48.750;9.314;2023-04-24T12:12:48;6.40;;;6.03;;
40675;SDS011;26359;48.750;9.314;2023-04-24T12:15:16;5.35;;;5.05;;
40675;SDS011;26359;48.750;9.314;2023-04-24T12:17:43;9.07;;;8.60;;
40675;SDS011;26359;48.750;9.314;2023-04-24T12:20:08;6.35;;;5.88;;
40675;SDS011;26359;48.750;9.314;2023-04-24T12:22:50;12.38;;;11.68;;
40675;SDS011;26359;48.750;9.314;2023-04-24T12:25:21;9.52;;;9.02;;
40675;SDS011;26359;48.750;9.314;2023-04-24T12:27:55;6.35;;;5.95;;
40675;SDS011;26359;48.750;9.314;2023-04-24T12:30:31;7.57;;;7.18;;
40675;SDS011;26359;48.750;9.314;2023-04-24T12:32:58;6.10;;;4.90;;
40675;SDS011;26359;48.750;9.314;2023-04-24T12:35:26;5.68;;;5.38;;
40675;SDS011;26359;48.750;9.314;2023-04-24T12:37:52;6.47;;;6.07;;
40675;SDS011;26359;48.750;9.314;2023-04-24T12:40:19;6.40;;;6.05;;
40675;SDS011;26359;48.750;9.314;2023-04-24T12:42:46;7.68;;;7.05;;
40675;SDS011;26359;48.750;9.314;2023-04-24T12:45:16;5.43;;;5.13;;
40675;SDS011;26359;48.750;9.314;2023-04-24T12:47:43;6.70;;;6.30;;
40675;SDS011;26359;48.750;9.314;2023-04-24T12:50:11;6.00;;;5.60;;
40675;SDS011;26359;48.750;9.314;2023-04-24T12:52:38;6.60;;;6.15;;
40675;SDS011;26359;48.750;9.314;2023-04-24T12:55:04;6.18;;;5.82;;
40675;SDS011;26359;48.750;9.314;2023-04-24T12:57:33;6.63;;;6.13;;
40675;SDS011;26359;48.750;9.314;2023-04-24T12:59:59;7.50;;;6.78;;
40675;SDS011;26359;48.750;9.314;2023-04-24T13:02:26;6.28;;;5.78;;
40675;SDS011;26359;48.750;9.314;2023-04-24T13:04:54;5.50;;;5.00;;
40675;SDS011;26359;48.750;9.314;2023-04-24T13:07:19;5.93;;;5.50;;
40675;SDS011;26359;48.750;9.314;2023-04-24T13:09:45;4.75;;;4.45;;
40675;SDS011;26359;48.750;9.314;2023-04-24T13:12:12;5.13;;;4.63;;
40675;SDS011;26359;48.750;9.314;2023-04-24T13:14:38;3.88;;;3.58;;
40675;SDS011;26359;48.750;9.314;2023-04-24T13:17:03;9.20;;;8.65;;
40675;SDS011;26359;48.750;9.314;2023-04-24T13:19:29;5.47;;;5.18;;
40675;SDS011;26359;48.750;9.314;2023-04-24T13:22:01;4.18;;;3.97;;
40675;SDS011;26359;48.750;9.314;2023-04-24T13:24:27;12.93;;;12.20;;
40675;SDS011;26359;48.750;9.314;2023-04-24T13:26:52;9.43;;;8.80;;
40675;SDS011;26359;48.750;9.314;2023-04-24T13:29:18;8.20;;;7.78;;
40675;SDS011;26359;48.750;9.314;2023-04-24T13:31:45;6.18;;;5.85;;
40675;SDS011;26359;48.750;9.314;2023-04-24T13:34:12;12.10;;;11.38;;
40675;SDS011;26359;48.750;9.314;2023-04-24T13:36:38;5.68;;;5.38;;
40675;SDS011;26359;48.750;9.314;2023-04-24T13:39:04;8.43;;;8.02;;
40675;SDS011;26359;48.750;9.314;2023-04-24T13:41:30;20.42;;;19.33;;
40675;SDS011;26359;48.750;9.314;2023-04-24T13:43:57;21.23;;;19.98;;
40675;SDS011;26359;48.750;9.314;2023-04-24T13:46:23;35.20;;;33.40;;
40675;SDS011;26359;48.750;9.314;2023-04-24T13:48:48;32.42;;;30.73;;
40675;SDS011;26359;48.750;9.314;2023-04-24T13:51:14;23.10;;;21.80;;
40675;SDS011;26359;48.750;9.314;2023-04-24T13:53:40;12.95;;;12.23;;
40675;SDS011;26359;48.750;9.314;2023-04-24T13:56:05;8.30;;;7.70;;
40675;SDS011;26359;48.750;9.314;2023-04-24T13:58:31;19.00;;;18.05;;
40675;SDS011;26359;48.750;9.314;2023-04-24T14:00:57;16.38;;;15.43;;
40675;SDS011;26359;48.750;9.314;2023-04-24T14:03:23;8.63;;;7.97;;
40675;SDS011;26359;48.750;9.314;2023-04-24T14:05:48;4.97;;;4.57;;
40675;SDS011;26359;48.750;9.314;2023-04-24T14:08:14;6.00;;;5.60;;
40675;SDS011;26359;48.750;9.314;2023-04-24T14:10:40;9.43;;;8.82;;
40675;SDS011;26359;48.750;9.314;2023-04-24T14:13:05;6.60;;;6.20;;
40675;SDS011;26359;48.750;9.314;2023-04-24T14:15:31;3.67;;;3.42;;
40675;SDS011;26359;48.750;9.314;2023-04-24T14:17:57;4.38;;;4.07;;
40675;SDS011;26359;48.750;9.314;2023-04-24T14:20:22;4.60;;;4.20;;
40675;SDS011;26359;48.750;9.314;2023-04-24T14:22:48;4.05;;;3.85;;
40675;SDS011;26359;48.750;9.314;2023-04-24T14:25:13;5.38;;;5.07;;
40675;SDS011;26359;48.750;9.314;2023-04-24T14:27:40;8.68;;;8.18;;
40675;SDS011;26359;48.750;9.314;2023-04-24T14:30:06;10.80;;;10.10;;
40675;SDS011;26359;48.750;9.314;2023-04-24T14:32:32;6.45;;;6.05;;
40675;SDS011;26359;48.750;9.314;2023-04-24T14:34:57;11.52;;;10.70;;
40675;SDS011;26359;48.750;9.314;2023-04-24T14:37:23;8.52;;;8.10;;
40675;SDS011;26359;48.750;9.314;2023-04-24T14:39:48;15.52;;;14.73;;
40675;SDS011;26359;48.750;9.314;2023-04-24T14:42:14;8.25;;;7.65;;
40675;SDS011;26359;48.750;9.314;2023-04-24T14:44:41;7.15;;;6.60;;
40675;SDS011;26359;48.750;9.314;2023-04-24T14:47:07;6.53;;;6.03;;
40675;SDS011;26359;48.750;9.314;2023-04-24T14:49:33;6.35;;;5.95;;
40675;SDS011;26359;48.750;9.314;2023-04-24T14:51:58;6.90;;;6.40;;
40675;SDS011;26359;48.750;9.314;2023-04-24T14:54:24;5.53;;;5.18;;
40675;SDS011;26359;48.750;9.314;2023-04-24T14:56:50;7.57;;;7.07;;
40675;SDS011;26359;48.750;9.314;2023-04-24T14:59:16;10.05;;;9.52;;
40675;SDS011;26359;48.750;9.314;2023-04-24T15:01:41;8.50;;;8.00;;
40675;SDS011;26359;48.750;9.314;2023-04-24T15:04:07;7.68;;;7.07;;
40675;SDS011;26359;48.750;9.314;2023-04-24T15:06:32;6.85;;;6.25;;
40675;SDS011;26359;48.750;9.314;2023-04-24T15:08:58;7.65;;;7.15;;
40675;SDS011;26359;48.750;9.314;2023-04-24T15:11:23;6.20;;;5.80;;
40675;SDS011;26359;48.750;9.314;2023-04-24T15:13:49;6.75;;;6.18;;
40675;SDS011;26359;48.750;9.314;2023-04-24T15:16:15;6.55;;;5.90;;